首页
METAR-TAF:

METAR-TAF

机场 :

卡塞尔, 德国

纬度: 51-24N, 经度: 009-23E, 海拔: 277米

当前天气观测

该预报发布于7小时和8分钟前的20:20 UTC
风速3节,风向南转南东,在西转西南之间变化
温度 11°C
湿度 100%
气压 1012 hPa
能见度10公里或以上
少量云层高于3400英尺

METAR: EDVK 232020Z 16003KT 100V250 9999 FEW034 11/11 Q1012

时间: 05:28 (03:28 UTC)

预报

该预报发布于10小时和28分钟前的17:00 UTC
预报有效从23日的 18点(UTC)到 24日的 03点(UTC)
风速5节,风向南转西南
能见度10公里或以上
散云层高于800英尺
多云层高于2000英尺
短暂存在
从 23日的 18点(UTC)到 23日的 20点(UTC)
能見度: 4000
多云层高于800英尺
多云层高于1500英尺, 积雨云.
阵雨

TAF: EDVK 231700Z 2318/2403 20005KT 9999 SCT008 BKN020 TEMPO 2318/2320 4000 SHRA BKN008 BKN015CB

超过4000个机场的气象观测和天气预报(METAR&TAF报告)。

可查询的气象台以黄色和红色小点在地图上表示。

将鼠标移到小点上方,可查看气象台名称。

然后点击查看天气观测和预报。

如需切换地图:点击带黑十字的绿色按钮放大地图;点击带横线的绿色按钮缩小地图;或者点击绿色箭头查看邻近地区的地图。


METAR-TAF: